Database: COMPET-N - COOP - 3PL - 4PL - CNDOOM

WAD: Doom | Doom 2 | TNT | Plutonia | AV | HR | Scythe | MM | MM2 | Requiem | CE
Category: speed | nmare | max | nm100s | tyson | pacifist | fast | respawn | nomo | misc | built | all
Highscore: ALL | IWAD | PWAD | Country | Continent

< Previous map       Next map >
Remove: wad | map | category | player | allMAP06
MapPlayerTimeDateFilenameCommentsDL
MAP06: The CrusherHenning Skogsto54.002000-04-24lv06-054.zip - 318
MAP06: The CrusherHenning Skogsto55.001999-07-31lv06-055.zip - 192
MAP06: The CrusherAdam Hegyi56.001999-05-23lv06-056.zip - 201
MAP06: The CrusherEsko Koskimaa58.001998-02-22lv06-058.zip - 191
MAP06: The CrusherDaniel Lindgren59.001996-08-25lv06b059.zip - 180
MAP06: The CrusherDanny Lancashire1:00.001996-05-27lv06-100.zip - 106
MAP06: The CrusherDaniel Lindgren1:02.001996-02-24lv06-102.zip - 173
MAP06: The CrusherKai-Uwe Humpert1:08.001996-02-19lv06-108.zip - 146
MAP06: The CrusherDaniel Lindgren1:11.001996-02-20lv06-111.zip - 164
MAP06: The CrusherKai-Uwe Humpert1:18.001996-02-17lv06-118.zip - 143
MAP06: The CrusherDaniel Lindgren1:24.001996-02-16lv06-124.zip - 146
MAP06: The CrusherDaniel Lindgren1:29.001996-01-28lv06-129.zip - 173
MAP06: The CrusherAndreas Kren1:31.001995-12-16lv06-131.zip - 132
MAP06: The CrusherDaniel Lindgren1:42.001995-12-03lv06-142.zip - 173
MAP06: The CrusherDaniel Lindgren1:48.001995-11-23lv06-148.zip - 148
MAP06: The CrusherAndreas Kren2:10.001995-09-12lv06-210.zip - 129
MAP06: The CrusherSimon Widlake4:12.001995-08-21lv06-412.zip - 137
MAP06: The CrusherHenning Skogsto56.001999-09-30nm06-056.zip - 294
MAP06: The CrusherAdam Hegyi58.001999-05-23nm06-058.zip - 177
MAP06: The CrusherHenning Skogsto1:02.001999-04-18nm06-102.zip - 188
MAP06: The CrusherAdam Hegyi1:05.001998-09-18nm06-105.zip - 171
MAP06: The CrusherIlya Britvich1:15.001997-11-30nm06-115.zip - 204
MAP06: The CrusherIlya Britvich1:34.001997-11-18nm06-134.zip - 174
MAP06: The CrusherIstvan Pataki1:48.001997-04-18nm06-148.zip - 154
MAP06: The CrusherMichael Kren2:21.001996-04-28nm06-221.zip - 110
MAP06: The CrusherDaniel Lindgren2:53.001996-02-27nm06-253.zip - 158
MAP06: The CrusherAnders Johnsen2:22.002003-01-20lv06-222.zip - 314
MAP06: The CrusherRadek Pecka2:40.002003-01-19lv06-240.zip - 170
MAP06: The CrusherVincent Catalaa2:49.002000-08-29lv06-249.zip - 204
MAP06: The CrusherHenning Skogsto2:53.001998-07-21lv06-253.zip - 203
MAP06: The CrusherDaniel Lindgren3:01.001997-06-20lv06-301.zip - 190
MAP06: The CrusherDaniel Lindgren3:20.001996-06-08lv06-320.zip - 180
MAP06: The CrusherKai-Uwe Humpert3:45.001996-05-30lv06-345.zip - 159
MAP06: The CrusherKai-Uwe Humpert4:03.001996-05-30lv06-403.zip - 190
MAP06: The CrusherMichael Kren4:25.001996-05-01lv06-425.zip - 127
MAP06: The CrusherDaniel Lindgren4:31.001995-11-21lv06-431.zip - 181
MAP06: The CrusherSven Huth6:09.001995-02-12lv06-609.zip - 279
MAP06: The CrusherVincent Catalaa1:05.002000-09-08ns06-105.zip - 279
MAP06: The CrusherZvonimir Bužanić1:07.002001-07-21ns06-107.zip - 202
MAP06: The CrusherZvonimir Bužanić1:08.002000-09-04ns06-108.zip - 206
MAP06: The CrusherHenning Skogsto1:09.002000-03-11ns06-109.zip - 159
MAP06: The CrusherHenning Skogsto1:10.001999-09-04ns06-110.zip - 159
MAP06: The CrusherZvonimir Bužanić1:11.001999-09-25ns06-111.zip - 194
MAP06: The CrusherHenning Skogsto1:13.001999-08-10ns06-113.zip - 173
MAP06: The CrusherZvonimir Bužanić1:18.001999-08-07ns06-118.zip - 183
MAP06: The CrusherZvonimir Bužanić1:27.001999-07-25ns06-127.zip - 193
MAP06: The CrusherZvonimir Bužanić1:34.001999-07-16ns06-134.zip - 173
MAP06: The CrusherZvonimir Bužanić1:42.001999-06-22ns06-142.zip - 197
MAP06: The CrusherAndreas Kren2:24.001999-01-06ns06-224.zip - 118
MAP06: The CrusherJim Leonard15:43.002002-05-02ty061543.zip - 339
MAP06: The CrusherAndy Kempling19:07.001999-07-31ty061907.zip - 337
MAP06: The CrusherDaniel Lindgren19:21.001997-06-30ty061921.zip - 178
MAP06: The CrusherMike Pratt45:34.001995-11-12ty064534.zip - 190
MAP06: The CrusherJakub Razak1:13.002003-11-28pa06-113.zip - 319
MAP06: The CrusherDrew DeVore1:15.002003-04-27pa06-115.zip - 174
MAP06: The CrusherVaclav Kunes1:22.002001-10-10pa06-122.zip - 183
MAP06: The CrusherOyvind Stenhaug1:38.002001-08-27pa06-138.zip - 188
MAP06: The CrusherJaromir Cihak2:11.002000-01-05pa06-211.zip - 187
MAP06: The CrusherJason Henry2:57.001999-04-24pa06-257.zip - 119
MAP06: The CrusherKai-Uwe Humpert6:39.001997-05-01pa06-639.zip - 144
MAP06: The CrusherRadek Pecka2:42.002003-01-26fa06-242.zip - 300
MAP06: The CrusherHenning Skogsto2:57.001998-10-02fa06-257.zip - 156
MAP06: The CrusherIlya Britvich3:02.001998-02-21fa06-302.zip - 151
MAP06: The CrusherIlya Britvich3:06.001997-12-05fa06-306.zip - 159
MAP06: The CrusherDaniel Lindgren3:57.001996-07-04fa06-357.zip - 195
MAP06: The CrusherPeo Sjoblom4:57.001996-07-03fa06-457.zip - 132
MAP06: The CrusherPeo Sjoblom7:59.001996-05-21fa06-759.zip - 148
MAP06: The CrusherPeo Sjoblom9:44.001996-05-21fa06-944.zip - 126
MAP06: The CrusherPeo Sjoblom10:14.001996-05-21f06-1014.zip - 127
MAP06: The CrusherZvonimir Bužanić2:26.002012-10-19re06-226.zip - 341
MAP06: The CrusherHenning Skogsto2:27.001999-09-03re06-227.zip - 163
MAP06: The CrusherZvonimir Bužanić2:31.001999-09-16re06-231.zip - 209
MAP06: The CrusherHenning Skogsto2:41.001999-08-10re06-241.zip - 169
MAP06: The CrusherZvonimir Bužanić2:46.001999-07-31re06-246.zip - 212
MAP06: The CrusherHenning Skogsto3:05.001998-09-03re06-305.zip - 141
MAP06: The CrusherThomas Kroppen6:11.001997-09-20re06-611.zip - 143
MAP06: The CrusherLooper 45.832011-06-30d0604583.zip - 402
MAP06: The CrusherAdam Hegyi48.201999-04-28d0604820.zip - 205
MAP06: The CrusherArno Slagboom56.692000-05-01d0605669.zip - 146
Remove: wad | map | category | player | all